createdAt,value
2022-11-16T00:02:12.908Z,99884.53
2022-11-16T00:04:39.509Z,99877.94
2022-11-16T00:07:06.496Z,99884.53
2022-11-16T00:09:33.578Z,99884.16
2022-11-16T00:12:03.643Z,99879.53
2022-11-16T00:14:33.796Z,99887.69
2022-11-16T00:17:00.873Z,99883.03
2022-11-16T00:19:27.779Z,99881.88
2022-11-16T00:21:54.998Z,99889.63
2022-11-16T00:24:23.305Z,99878.75
2022-11-16T00:26:50.486Z,99882.25
2022-11-16T00:29:25.576Z,99878.78
2022-11-16T00:31:53.683Z,99883.44
2022-11-16T00:34:21.344Z,99879.94
2022-11-16T00:36:48.109Z,99876.84
2022-11-16T00:39:16.297Z,99871.78
2022-11-16T00:41:43.239Z,99878.00
2022-11-16T00:44:11.005Z,99867.91
2022-11-16T00:46:37.748Z,99869.84
2022-11-16T00:49:05.504Z,99871.41
2022-11-16T00:51:32.962Z,99862.09
2022-11-16T00:53:59.524Z,99867.16
2022-11-16T00:56:26.037Z,99859.78
2022-11-16T00:58:52.482Z,99870.66
2022-11-16T01:01:19.438Z,99864.81
2022-11-16T01:03:46.029Z,99862.06
2022-11-16T01:06:14.297Z,99874.13
2022-11-16T01:08:41.938Z,99862.50
2022-11-16T01:11:28.247Z,99859.00
2022-11-16T01:13:55.649Z,99857.06
2022-11-16T01:16:23.562Z,99860.56
2022-11-16T01:18:52.282Z,99860.97
2022-11-16T01:21:19.653Z,99854.34
2022-11-16T01:23:46.449Z,99852.03
2022-11-16T01:26:12.909Z,99839.16
2022-11-16T01:28:39.364Z,99838.44
2022-11-16T01:31:06.141Z,99829.88
2022-11-16T01:33:32.630Z,99831.44
2022-11-16T01:35:59.154Z,99834.91
2022-11-16T01:38:29.520Z,99831.06
2022-11-16T01:40:56.759Z,99832.59
2022-11-16T01:43:25.411Z,99840.00
2022-11-16T01:45:52.290Z,99833.78
2022-11-16T01:48:29.697Z,99833.78
2022-11-16T01:50:57.585Z,99842.28
2022-11-16T01:53:24.874Z,99840.72
2022-11-16T01:55:52.164Z,99829.84
2022-11-16T01:58:23.091Z,99830.22
2022-11-16T02:00:49.736Z,99836.06
2022-11-16T02:03:19.040Z,99831.78
2022-11-16T02:06:26.634Z,99820.91
2022-11-16T02:09:45.907Z,99820.53
2022-11-16T02:12:37.579Z,99814.31
2022-11-16T02:15:15.148Z,99818.97
2022-11-16T02:17:51.933Z,99814.31
2022-11-16T02:20:44.323Z,99818.59
2022-11-16T02:23:34.957Z,99824.41
2022-11-16T02:26:19.059Z,99817.03
2022-11-16T02:29:04.055Z,99815.47
2022-11-16T02:31:37.763Z,99813.91
2022-11-16T02:34:08.524Z,99819.75
2022-11-16T02:36:38.140Z,99816.22
2022-11-16T02:39:10.410Z,99818.16
2022-11-16T02:41:41.373Z,99811.94
2022-11-16T02:44:25.772Z,99816.22
2022-11-16T02:46:58.652Z,99808.88
2022-11-16T02:49:28.819Z,99803.78
2022-11-16T02:51:56.450Z,99805.72
2022-11-16T02:54:24.596Z,99808.44
2022-11-16T02:57:16.757Z,99813.09
2022-11-16T02:59:48.078Z,99808.84
2022-11-16T03:02:46.763Z,99809.59
2022-11-16T03:05:32.048Z,99812.31
2022-11-16T03:08:16.878Z,99818.91
2022-11-16T03:11:05.944Z,99818.09
2022-11-16T03:13:34.839Z,99823.91
2022-11-16T03:16:07.924Z,99825.06
2022-11-16T03:18:34.800Z,99835.47
2022-11-16T03:21:17.510Z,99832.34
2022-11-16T03:23:45.893Z,99836.56
2022-11-16T03:26:17.012Z,99831.91
2022-11-16T03:28:59.875Z,99825.63
2022-11-16T03:31:37.708Z,99830.28
2022-11-16T03:34:10.448Z,99833.38
2022-11-16T03:36:41.681Z,99825.50
2022-11-16T03:39:18.924Z,99829.69
2022-11-16T03:41:48.216Z,99834.31
2022-11-16T03:44:16.805Z,99837.75
2022-11-16T03:46:45.341Z,99832.63
2022-11-16T03:49:11.937Z,99824.88
2022-11-16T03:51:38.762Z,99833.38
2022-11-16T03:54:05.593Z,99838.81
2022-11-16T03:56:32.037Z,99842.69
2022-11-16T03:58:58.493Z,99846.22
2022-11-16T04:01:25.004Z,99846.19
2022-11-16T04:03:51.491Z,99847.34
2022-11-16T04:06:36.368Z,99845.34
2022-11-16T04:09:21.688Z,99852.72
2022-11-16T04:12:06.856Z,99843.41
2022-11-16T04:14:52.220Z,99839.09
2022-11-16T04:17:38.022Z,99844.47
2022-11-16T04:20:24.134Z,99853.44
2022-11-16T04:23:29.681Z,99847.66
2022-11-16T04:25:56.532Z,99852.38
2022-11-16T04:28:29.093Z,99843.84
2022-11-16T04:31:17.042Z,99858.59
2022-11-16T04:34:02.872Z,99866.38
2022-11-16T04:36:47.662Z,99860.13
2022-11-16T04:39:14.245Z,99853.16
2022-11-16T04:41:59.300Z,99849.69
2022-11-16T04:44:45.670Z,99851.63
2022-11-16T04:47:12.141Z,99852.00
2022-11-16T04:49:38.541Z,99864.00
2022-11-16T04:52:04.985Z,99864.34
2022-11-16T04:54:31.422Z,99852.38
2022-11-16T04:56:57.901Z,99853.50
2022-11-16T04:59:24.387Z,99858.13
2022-11-16T05:02:09.017Z,99856.94
2022-11-16T05:04:37.329Z,99869.66
2022-11-16T05:07:04.241Z,99863.44
2022-11-16T05:09:30.668Z,99869.25
2022-11-16T05:11:57.101Z,99875.38
2022-11-16T05:14:23.541Z,99877.72
2022-11-16T05:16:49.992Z,99885.09
2022-11-16T05:19:34.655Z,99880.50
2022-11-16T05:22:01.139Z,99894.09
2022-11-16T05:24:33.445Z,99889.81
2022-11-16T05:27:12.231Z,99890.97
2022-11-16T05:29:39.049Z,99892.13
2022-11-16T05:32:06.639Z,99894.09
2022-11-16T05:34:33.700Z,99896.41
2022-11-16T05:37:00.195Z,99901.84
2022-11-16T05:39:27.091Z,99904.94
2022-11-16T05:41:54.073Z,99916.16
2022-11-16T05:44:20.738Z,99913.00
2022-11-16T05:46:47.237Z,99916.88
2022-11-16T05:49:14.440Z,99920.31
2022-11-16T05:51:42.948Z,99917.22
2022-11-16T05:54:12.864Z,99911.72
2022-11-16T05:56:39.578Z,99915.59
2022-11-16T05:59:06.240Z,99910.50
2022-11-16T06:01:32.796Z,99914.72
2022-11-16T06:04:00.445Z,99908.50
2022-11-16T06:06:27.759Z,99913.50
2022-11-16T06:08:54.843Z,99901.44
2022-11-16T06:11:21.600Z,99907.22
2022-11-16T06:13:48.052Z,99915.34
2022-11-16T06:16:14.517Z,99914.06
2022-11-16T06:18:43.385Z,99905.13
2022-11-16T06:21:10.934Z,99910.59
2022-11-16T06:23:37.526Z,99901.69
2022-11-16T06:26:05.323Z,99902.81
2022-11-16T06:28:33.245Z,99912.81
2022-11-16T06:31:00.181Z,99921.69
2022-11-16T06:33:32.219Z,99926.31
2022-11-16T06:36:00.095Z,99928.91
2022-11-16T06:38:27.367Z,99926.56
2022-11-16T06:40:56.400Z,99931.56
2022-11-16T06:43:24.151Z,99926.06
2022-11-16T06:45:52.658Z,99933.75
2022-11-16T06:48:20.262Z,99931.69
2022-11-16T06:50:51.934Z,99934.75
2022-11-16T06:53:19.262Z,99940.53
2022-11-16T06:55:45.710Z,99944.41
2022-11-16T06:58:12.324Z,99953.66
2022-11-16T07:00:38.796Z,99944.22
2022-11-16T07:03:05.520Z,99950.44
2022-11-16T07:05:32.461Z,99950.00
2022-11-16T07:07:59.220Z,99948.50
2022-11-16T07:10:25.889Z,99952.00
2022-11-16T07:12:52.446Z,99961.22
2022-11-16T07:15:19.460Z,99957.66
2022-11-16T07:17:45.908Z,99958.38
2022-11-16T07:20:12.631Z,99967.16
2022-11-16T07:22:39.194Z,99967.03
2022-11-16T07:25:06.164Z,99966.13
2022-11-16T07:27:32.577Z,99971.78
2022-11-16T07:29:59.013Z,99975.94
2022-11-16T07:32:25.458Z,99987.09
2022-11-16T07:34:51.890Z,99978.94
2022-11-16T07:37:18.329Z,99986.28
2022-11-16T07:39:45.699Z,99996.25
2022-11-16T07:42:12.377Z,100000.09
2022-11-16T07:44:39.380Z,99999.66
2022-11-16T07:47:06.121Z,99990.69
2022-11-16T07:49:32.640Z,99993.06
2022-11-16T07:51:59.148Z,100002.66
2022-11-16T07:54:25.616Z,100003.38
2022-11-16T07:56:54.823Z,100010.00
2022-11-16T07:59:21.243Z,100012.34
2022-11-16T08:01:48.312Z,100013.63
2022-11-16T08:04:17.525Z,100023.66
2022-11-16T08:06:44.609Z,100025.22
2022-11-16T08:09:11.050Z,100027.59
2022-11-16T08:11:38.009Z,100028.78
2022-11-16T08:14:04.555Z,100036.97
2022-11-16T08:16:33.225Z,100030.41
2022-11-16T08:19:01.248Z,100039.78
2022-11-16T08:21:27.741Z,100036.34
2022-11-16T08:23:58.520Z,100029.78
2022-11-16T08:26:25.754Z,100041.84
2022-11-16T08:28:53.740Z,100036.44
2022-11-16T08:31:24.140Z,100030.28
2022-11-16T08:33:51.849Z,100040.75
2022-11-16T08:36:19.087Z,100038.47
2022-11-16T08:38:47.921Z,100026.94
2022-11-16T08:41:15.365Z,100037.03
2022-11-16T08:43:42.791Z,100039.75
2022-11-16T08:46:10.736Z,100042.09
2022-11-16T08:48:38.222Z,100039.09
2022-11-16T08:51:17.493Z,100044.28
2022-11-16T08:53:44.884Z,100042.00
2022-11-16T08:56:15.394Z,100045.06
2022-11-16T08:58:43.667Z,100041.13
2022-11-16T09:01:13.770Z,100039.25
2022-11-16T09:03:41.180Z,100039.25
2022-11-16T09:06:09.374Z,100050.84
2022-11-16T09:08:37.283Z,100052.06
2022-11-16T09:11:05.412Z,100039.28
2022-11-16T09:13:31.939Z,100043.19
2022-11-16T09:15:59.649Z,100042.13
2022-11-16T09:18:27.344Z,100052.25
2022-11-16T09:20:53.906Z,100037.53
2022-11-16T09:23:25.102Z,100053.09
2022-11-16T09:25:52.338Z,100059.34
2022-11-16T09:28:19.667Z,100057.06
2022-11-16T09:30:48.372Z,100063.13
2022-11-16T09:33:14.800Z,100063.59
2022-11-16T09:35:41.286Z,100057.75
2022-11-16T09:38:09.851Z,100061.19
2022-11-16T09:40:44.783Z,100065.84
2022-11-16T09:43:32.673Z,100073.19
2022-11-16T09:46:22.920Z,100070.47
2022-11-16T09:48:50.909Z,100074.38
2022-11-16T09:51:20.380Z,100067.44
2022-11-16T09:54:13.761Z,100070.56
2022-11-16T09:56:42.346Z,100067.16
2022-11-16T09:59:12.246Z,100060.22
2022-11-16T10:01:48.058Z,100064.97
2022-11-16T10:04:43.701Z,100061.63
2022-11-16T10:07:16.939Z,100059.19
2022-11-16T10:09:46.818Z,100056.53
2022-11-16T10:12:18.532Z,100063.88
2022-11-16T10:15:17.495Z,100072.88
2022-11-16T10:17:57.726Z,100067.03
2022-11-16T10:20:45.576Z,100068.22
2022-11-16T10:23:15.007Z,100072.13
2022-11-16T10:25:44.649Z,100072.53
2022-11-16T10:28:34.110Z,100071.84
2022-11-16T10:31:13.799Z,100068.75
2022-11-16T10:33:44.253Z,100070.03
2022-11-16T10:36:15.644Z,100069.66
2022-11-16T10:38:44.161Z,100070.88
2022-11-16T10:41:17.992Z,100076.38
2022-11-16T10:43:45.536Z,100067.91
2022-11-16T10:46:25.315Z,100072.63
2022-11-16T10:49:19.379Z,100077.28
2022-11-16T10:51:45.815Z,100064.91
2022-11-16T10:54:17.300Z,100070.81
2022-11-16T10:56:47.084Z,100060.00
2022-11-16T10:59:18.371Z,100071.66
2022-11-16T11:01:50.421Z,100065.41
2022-11-16T11:04:23.027Z,100069.75
2022-11-16T11:06:52.850Z,100068.66
2022-11-16T11:09:27.639Z,100063.63
2022-11-16T11:12:20.045Z,100064.84
2022-11-16T11:15:12.299Z,100058.31
2022-11-16T11:17:42.165Z,100047.47
2022-11-16T11:20:17.740Z,100050.56
2022-11-16T11:22:53.116Z,100048.28
2022-11-16T11:25:24.566Z,100039.88
2022-11-16T11:28:03.303Z,100044.25
2022-11-16T11:30:30.030Z,100044.75
2022-11-16T11:32:58.659Z,100035.91
2022-11-16T11:35:29.888Z,100032.06
2022-11-16T11:38:04.718Z,100037.97
2022-11-16T11:40:34.015Z,100035.66
2022-11-16T11:43:02.850Z,100036.06
2022-11-16T11:45:47.936Z,100035.63
2022-11-16T11:48:24.445Z,100034.41
2022-11-16T11:50:56.733Z,100032.47
2022-11-16T11:53:42.076Z,100036.34
2022-11-16T11:56:11.994Z,100034.84
2022-11-16T11:58:40.603Z,100027.88
2022-11-16T12:01:18.416Z,100030.22
2022-11-16T12:04:08.920Z,100032.56
2022-11-16T12:07:03.351Z,100031.41
2022-11-16T12:09:50.430Z,100041.06
2022-11-16T12:12:29.336Z,100029.72
2022-11-16T12:15:50.249Z,100030.13
2022-11-16T12:18:34.979Z,100028.97
2022-11-16T12:21:14.779Z,100027.03
2022-11-16T12:23:47.224Z,100022.38
2022-11-16T12:26:28.781Z,100027.50
2022-11-16T12:29:24.814Z,100027.72
2022-11-16T12:32:09.085Z,100011.19
2022-11-16T12:35:07.491Z,100005.81
2022-11-16T12:37:55.638Z,100002.72
2022-11-16T12:40:33.972Z,100005.13
2022-11-16T12:43:15.533Z,99994.22
2022-11-16T12:45:58.837Z,99996.56
2022-11-16T12:48:37.069Z,99997.00
2022-11-16T12:51:31.952Z,99995.06
2022-11-16T12:54:07.690Z,99985.38
2022-11-16T12:56:52.916Z,99989.72
2022-11-16T12:59:44.585Z,99989.31
2022-11-16T13:02:36.020Z,99973.41
2022-11-16T13:05:17.118Z,99993.25
2022-11-16T13:07:48.230Z,99985.50
2022-11-16T13:10:23.275Z,99978.84
2022-11-16T13:13:21.852Z,99978.88
2022-11-16T13:15:46.293Z,99970.41
2022-11-16T13:18:17.637Z,99972.00
2022-11-16T13:20:53.126Z,99961.50
2022-11-16T13:23:31.952Z,99964.22
2022-11-16T13:26:10.274Z,99971.22
2022-11-16T13:28:45.839Z,99961.81
2022-11-16T13:31:31.520Z,99970.69
2022-11-16T13:34:03.009Z,99972.66
2022-11-16T13:36:32.381Z,99976.84
2022-11-16T13:38:58.821Z,99970.59
2022-11-16T13:41:28.870Z,99971.31
2022-11-16T13:43:55.835Z,99969.38
2022-11-16T13:46:54.225Z,99965.84
2022-11-16T13:49:36.222Z,99961.16
2022-11-16T13:52:22.505Z,99962.34
2022-11-16T13:54:53.282Z,99959.28
2022-11-16T13:57:32.546Z,99963.53
2022-11-16T14:00:01.913Z,99951.47
2022-11-16T14:02:33.408Z,99941.78
2022-11-16T14:05:13.914Z,99943.75
2022-11-16T14:07:49.743Z,99948.41
2022-11-16T14:10:34.660Z,99946.47
2022-11-16T14:13:04.357Z,99952.75
2022-11-16T14:15:36.684Z,99943.03
2022-11-16T14:18:11.963Z,99938.00
2022-11-16T14:20:38.463Z,99938.38
2022-11-16T14:23:42.264Z,99933.72
2022-11-16T14:26:47.721Z,99929.09
2022-11-16T14:29:36.512Z,99928.72
2022-11-16T14:32:15.960Z,99938.53
2022-11-16T14:34:46.619Z,99929.31
2022-11-16T14:37:28.589Z,99912.84
2022-11-16T14:40:14.925Z,99908.56
2022-11-16T14:43:17.756Z,99903.25
2022-11-16T14:45:39.208Z,99898.00
2022-11-16T14:48:14.793Z,99893.31
2022-11-16T14:50:44.665Z,99890.19
2022-11-16T14:53:16.811Z,99887.91
2022-11-16T14:55:45.906Z,99879.50
2022-11-16T14:58:23.479Z,99892.50
2022-11-16T15:01:08.024Z,99889.78
2022-11-16T15:03:40.354Z,99880.88
2022-11-16T15:06:07.839Z,99883.25
2022-11-16T15:08:43.138Z,99880.13
2022-11-16T15:11:25.858Z,99879.34
2022-11-16T15:13:53.734Z,99882.41
2022-11-16T15:16:20.586Z,99871.47
2022-11-16T15:19:01.195Z,99875.31
2022-11-16T15:21:28.613Z,99867.13
2022-11-16T15:24:23.621Z,99853.84
2022-11-16T15:26:41.460Z,99857.75
2022-11-16T15:29:15.354Z,99855.00
2022-11-16T15:31:42.393Z,99858.84
2022-11-16T15:34:13.165Z,99856.84
2022-11-16T15:36:41.050Z,99851.69
2022-11-16T15:39:18.725Z,99844.69
2022-11-16T15:41:46.110Z,99838.50
2022-11-16T15:44:17.055Z,99838.09
2022-11-16T15:46:48.094Z,99835.38
2022-11-16T15:49:33.559Z,99828.72
2022-11-16T15:52:01.027Z,99824.84
2022-11-16T15:54:58.669Z,99828.34
2022-11-16T15:57:25.408Z,99825.19
2022-11-16T15:59:54.757Z,99828.63
2022-11-16T16:02:23.594Z,99813.84
2022-11-16T16:04:50.538Z,99804.13
2022-11-16T16:07:39.896Z,99815.38
2022-11-16T16:10:18.772Z,99798.63
2022-11-16T16:12:53.932Z,99807.13
2022-11-16T16:15:29.796Z,99804.34
2022-11-16T16:17:57.888Z,99824.91
2022-11-16T16:20:27.399Z,99817.16
2022-11-16T16:23:04.490Z,99810.50
2022-11-16T16:25:33.292Z,99812.06
2022-11-16T16:28:00.310Z,99808.56
2022-11-16T16:30:28.778Z,99803.06
2022-11-16T16:32:55.834Z,99801.50
2022-11-16T16:35:25.038Z,99790.59
2022-11-16T16:37:57.596Z,99797.56
2022-11-16T16:40:24.938Z,99787.88
2022-11-16T16:42:53.154Z,99783.94
2022-11-16T16:45:37.048Z,99791.28
2022-11-16T16:48:03.882Z,99784.28
2022-11-16T16:50:30.413Z,99789.34
2022-11-16T16:52:56.851Z,99785.03
2022-11-16T16:55:23.377Z,99784.63
2022-11-16T16:57:49.856Z,99780.34
2022-11-16T17:00:17.038Z,99761.72
2022-11-16T17:02:43.622Z,99765.56
2022-11-16T17:05:10.056Z,99758.56
2022-11-16T17:07:36.836Z,99754.69
2022-11-16T17:10:03.612Z,99760.13
2022-11-16T17:12:30.077Z,99752.75
2022-11-16T17:14:56.535Z,99755.84
2022-11-16T17:17:26.360Z,99747.66
2022-11-16T17:19:52.898Z,99754.22
2022-11-16T17:22:20.454Z,99750.72
2022-11-16T17:24:47.268Z,99758.81
2022-11-16T17:27:14.064Z,99763.84
2022-11-16T17:29:40.485Z,99754.91
2022-11-16T17:32:07.167Z,99758.81
2022-11-16T17:34:33.804Z,99753.75
2022-11-16T17:37:00.412Z,99756.88
2022-11-16T17:39:26.869Z,99750.63
2022-11-16T17:41:53.326Z,99744.06
2022-11-16T17:44:21.951Z,99737.41
2022-11-16T17:46:48.856Z,99734.34
2022-11-16T17:49:15.504Z,99732.78
2022-11-16T17:51:42.238Z,99738.63
2022-11-16T17:54:08.662Z,99726.22
2022-11-16T17:56:35.187Z,99720.81
2022-11-16T17:59:01.669Z,99723.16
2022-11-16T18:01:28.453Z,99720.88
2022-11-16T18:03:55.120Z,99722.44
2022-11-16T18:06:23.716Z,99722.88
2022-11-16T18:08:50.287Z,99722.50
2022-11-16T18:11:25.459Z,99715.50
2022-11-16T18:13:57.010Z,99722.13
2022-11-16T18:16:26.355Z,99719.78
2022-11-16T18:18:57.994Z,99722.13
2022-11-16T18:21:24.807Z,99712.81
2022-11-16T18:23:51.431Z,99722.50
2022-11-16T18:26:20.516Z,99714.34
2022-11-16T18:28:51.145Z,99725.94
2022-11-16T18:31:19.910Z,99723.66
2022-11-16T18:33:47.460Z,99719.38
2022-11-16T18:36:13.995Z,99714.28
2022-11-16T18:38:40.532Z,99722.75
2022-11-16T18:41:13.178Z,99708.81
2022-11-16T18:43:41.654Z,99717.34
2022-11-16T18:46:08.511Z,99714.22
2022-11-16T18:48:35.017Z,99708.03
2022-11-16T18:51:03.411Z,99702.59
2022-11-16T18:53:32.221Z,99700.66
2022-11-16T18:55:59.082Z,99693.66
2022-11-16T18:58:49.310Z,99699.09
2022-11-16T19:01:14.750Z,99704.50
2022-11-16T19:03:42.005Z,99692.91
2022-11-16T19:06:09.807Z,99682.81
2022-11-16T19:08:41.955Z,99681.28
2022-11-16T19:11:14.491Z,99673.09
2022-11-16T19:13:43.039Z,99657.56
2022-11-16T19:16:11.344Z,99653.31
2022-11-16T19:18:38.349Z,99641.28
2022-11-16T19:21:15.674Z,99647.09
2022-11-16T19:23:44.728Z,99638.19
2022-11-16T19:26:13.347Z,99631.59
2022-11-16T19:28:44.802Z,99623.44
2022-11-16T19:31:23.513Z,99616.41
2022-11-16T19:33:56.943Z,99618.78
2022-11-16T19:36:25.162Z,99608.72
2022-11-16T19:38:51.962Z,99603.25
2022-11-16T19:41:22.583Z,99595.09
2022-11-16T19:43:52.415Z,99595.50
2022-11-16T19:46:24.258Z,99588.53
2022-11-16T19:48:51.610Z,99591.59
2022-11-16T19:51:20.959Z,99581.16
2022-11-16T19:53:48.041Z,99577.28
2022-11-16T19:56:17.135Z,99561.06
2022-11-16T19:58:44.631Z,99561.44
2022-11-16T20:01:19.577Z,99559.13
2022-11-16T20:03:48.439Z,99554.09
2022-11-16T20:06:15.074Z,99539.69
2022-11-16T20:08:46.608Z,99541.63
2022-11-16T20:11:21.882Z,99531.94
2022-11-16T20:13:49.890Z,99519.94
2022-11-16T20:16:18.470Z,99519.94
2022-11-16T20:18:45.687Z,99521.88
2022-11-16T20:21:34.436Z,99517.22
2022-11-16T20:24:06.461Z,99517.22
2022-11-16T20:26:35.719Z,99513.38
2022-11-16T20:29:02.976Z,99519.97
2022-11-16T20:31:31.776Z,99509.13
2022-11-16T20:34:00.393Z,99505.25
2022-11-16T20:36:29.258Z,99495.97
2022-11-16T20:38:59.540Z,99492.06
2022-11-16T20:41:28.382Z,99490.91
2022-11-16T20:43:56.712Z,99482.38
2022-11-16T20:46:26.915Z,99492.47
2022-11-16T20:48:54.555Z,99484.31
2022-11-16T20:51:21.173Z,99486.25
2022-11-16T20:53:49.143Z,99476.97
2022-11-16T20:56:17.137Z,99477.75
2022-11-16T20:58:43.579Z,99470.03
2022-11-16T21:01:15.566Z,99465.75
2022-11-16T21:03:44.399Z,99457.25
2022-11-16T21:06:12.136Z,99454.13
2022-11-16T21:08:39.667Z,99443.66
2022-11-16T21:11:13.749Z,99437.47
2022-11-16T21:13:58.793Z,99429.31
2022-11-16T21:16:25.360Z,99425.06
2022-11-16T21:18:54.249Z,99421.19
2022-11-16T21:21:20.701Z,99410.34
2022-11-16T21:23:51.632Z,99402.97
2022-11-16T21:26:20.940Z,99405.72
2022-11-16T21:28:47.621Z,99395.22
2022-11-16T21:31:16.657Z,99404.13
2022-11-16T21:33:47.093Z,99397.16
2022-11-16T21:36:15.607Z,99391.72
2022-11-16T21:38:42.650Z,99375.06
2022-11-16T21:41:11.006Z,99380.09
2022-11-16T21:43:38.350Z,99373.53
2022-11-16T21:46:15.461Z,99358.78
2022-11-16T21:48:42.100Z,99356.47
2022-11-16T21:51:11.351Z,99353.38
2022-11-16T21:53:38.310Z,99339.03
2022-11-16T21:56:06.243Z,99335.16
2022-11-16T21:58:32.793Z,99336.69
2022-11-16T22:01:01.414Z,99329.72
2022-11-16T22:03:30.422Z,99321.97
2022-11-16T22:06:17.730Z,99326.63
2022-11-16T22:08:45.001Z,99314.22
2022-11-16T22:11:11.842Z,99306.47
2022-11-16T22:13:38.731Z,99299.91
2022-11-16T22:16:10.058Z,99287.09
2022-11-16T22:18:37.257Z,99291.34
2022-11-16T22:21:04.417Z,99285.56
2022-11-16T22:23:31.979Z,99266.16
2022-11-16T22:26:09.773Z,99272.75
2022-11-16T22:28:37.351Z,99268.47
2022-11-16T22:31:09.388Z,99261.53
2022-11-16T22:33:36.227Z,99253.00
2022-11-16T22:36:03.416Z,99244.84
2022-11-16T22:38:30.104Z,99242.53
2022-11-16T22:40:57.495Z,99226.22
2022-11-16T22:43:26.495Z,99220.81
2022-11-16T22:46:00.228Z,99215.41
2022-11-16T22:48:33.603Z,99194.84
2022-11-16T22:51:19.309Z,99188.25
2022-11-16T22:53:46.224Z,99181.66
2022-11-16T22:56:12.909Z,99168.88
2022-11-16T22:58:39.994Z,99168.47
2022-11-16T23:01:08.387Z,99146.78
2022-11-16T23:03:35.915Z,99143.69
2022-11-16T23:06:03.743Z,99141.38
2022-11-16T23:08:30.199Z,99130.91
2022-11-16T23:11:42.194Z,99137.47
2022-11-16T23:14:38.033Z,99115.81
2022-11-16T23:17:04.699Z,99112.69
2022-11-16T23:19:49.872Z,99111.94
2022-11-16T23:22:40.245Z,99098.75
2022-11-16T23:25:26.442Z,99111.13
2022-11-16T23:28:06.596Z,99086.72
2022-11-16T23:30:34.857Z,99086.75
2022-11-16T23:33:01.912Z,99081.72
2022-11-16T23:35:28.367Z,99069.72
2022-11-16T23:37:59.990Z,99053.81
2022-11-16T23:40:29.266Z,99047.25
2022-11-16T23:43:14.560Z,99042.22
2022-11-16T23:45:42.689Z,99018.19
2022-11-16T23:48:11.196Z,98994.94
2022-11-16T23:50:37.757Z,98985.63
2022-11-16T23:53:06.382Z,98981.78
2022-11-16T23:55:34.465Z,98969.41
2022-11-16T23:58:01.037Z,98965.50
